sensor_id;sensor_type;location;lat;lon;timestamp;pressure;altitude;pressure_sealevel;temperature;humidity
67740;BME280;54536;50.090;14.420;2023-01-29T00:02:06;100661.31;;;2.94;43.66
67740;BME280;54536;50.090;14.420;2023-01-29T00:04:32;100651.97;;;2.90;44.08
67740;BME280;54536;50.090;14.420;2023-01-29T00:07:01;100653.72;;;2.89;44.40
67740;BME280;54536;50.090;14.420;2023-01-29T00:09:28;100648.94;;;3.00;44.49
67740;BME280;54536;50.090;14.420;2023-01-29T00:11:55;100652.66;;;2.95;44.54
67740;BME280;54536;50.090;14.420;2023-01-29T00:14:22;100656.19;;;2.92;44.58
67740;BME280;54536;50.090;14.420;2023-01-29T00:16:54;100653.69;;;3.13;44.74
67740;BME280;54536;50.090;14.420;2023-01-29T00:19:26;100646.34;;;3.00;44.88
67740;BME280;54536;50.090;14.420;2023-01-29T00:21:53;100650.38;;;3.09;44.62
67740;BME280;54536;50.090;14.420;2023-01-29T00:24:19;100644.47;;;2.82;45.08
67740;BME280;54536;50.090;14.420;2023-01-29T00:26:45;100648.34;;;2.94;45.55
67740;BME280;54536;50.090;14.420;2023-01-29T00:29:12;100645.91;;;2.89;44.94
67740;BME280;54536;50.090;14.420;2023-01-29T00:31:38;100645.06;;;2.89;44.56
67740;BME280;54536;50.090;14.420;2023-01-29T00:34:05;100651.41;;;2.81;44.37
67740;BME280;54536;50.090;14.420;2023-01-29T00:36:31;100645.47;;;2.78;44.38
67740;BME280;54536;50.090;14.420;2023-01-29T00:38:59;100649.34;;;2.90;43.93
67740;BME280;54536;50.090;14.420;2023-01-29T00:41:29;100643.03;;;2.73;44.63
67740;BME280;54536;50.090;14.420;2023-01-29T00:44:15;100648.75;;;2.83;44.12
67740;BME280;54536;50.090;14.420;2023-01-29T00:47:06;100641.03;;;2.81;43.26
67740;BME280;54536;50.090;14.420;2023-01-29T00:50:00;100644.91;;;2.70;44.00
67740;BME280;54536;50.090;14.420;2023-01-29T00:52:27;100649.19;;;2.71;44.22
67740;BME280;54536;50.090;14.420;2023-01-29T00:54:56;100645.97;;;2.88;44.59
67740;BME280;54536;50.090;14.420;2023-01-29T00:57:24;100653.59;;;2.92;43.78
67740;BME280;54536;50.090;14.420;2023-01-29T00:59:51;100642.88;;;2.78;44.54
67740;BME280;54536;50.090;14.420;2023-01-29T01:02:24;100634.28;;;2.76;44.75
67740;BME280;54536;50.090;14.420;2023-01-29T01:05:11;100624.44;;;2.84;44.26
67740;BME280;54536;50.090;14.420;2023-01-29T01:07:53;100624.06;;;2.71;44.30
67740;BME280;54536;50.090;14.420;2023-01-29T01:10:31;100615.81;;;2.60;45.46
67740;BME280;54536;50.090;14.420;2023-01-29T01:12:59;100623.69;;;2.33;45.03
67740;BME280;54536;50.090;14.420;2023-01-29T01:15:30;100619.25;;;2.61;44.63
67740;BME280;54536;50.090;14.420;2023-01-29T01:17:59;100617.38;;;2.64;45.09
67740;BME280;54536;50.090;14.420;2023-01-29T01:20:29;100612.50;;;2.56;45.33
67740;BME280;54536;50.090;14.420;2023-01-29T01:22:56;100618.63;;;2.54;44.61
67740;BME280;54536;50.090;14.420;2023-01-29T01:25:25;100615.59;;;2.66;45.59
67740;BME280;54536;50.090;14.420;2023-01-29T01:27:56;100616.41;;;2.68;45.27
67740;BME280;54536;50.090;14.420;2023-01-29T01:30:25;100615.41;;;2.71;46.45
67740;BME280;54536;50.090;14.420;2023-01-29T01:32:51;100618.41;;;2.84;44.34
67740;BME280;54536;50.090;14.420;2023-01-29T01:35:18;100626.06;;;2.88;45.61
67740;BME280;54536;50.090;14.420;2023-01-29T01:37:46;100617.56;;;2.83;44.81
67740;BME280;54536;50.090;14.420;2023-01-29T01:40:19;100620.75;;;2.91;46.21
67740;BME280;54536;50.090;14.420;2023-01-29T01:42:48;100625.75;;;2.72;45.75
67740;BME280;54536;50.090;14.420;2023-01-29T01:45:30;100624.44;;;2.84;46.01
67740;BME280;54536;50.090;14.420;2023-01-29T01:48:27;100616.72;;;2.83;44.84
67740;BME280;54536;50.090;14.420;2023-01-29T01:51:05;100619.66;;;2.73;46.12
67740;BME280;54536;50.090;14.420;2023-01-29T01:53:40;100621.53;;;2.70;45.99
67740;BME280;54536;50.090;14.420;2023-01-29T01:56:36;100621.53;;;2.70;46.10
67740;BME280;54536;50.090;14.420;2023-01-29T01:59:11;100614.69;;;2.67;47.38
67740;BME280;54536;50.090;14.420;2023-01-29T02:01:42;100608.34;;;2.74;46.81
67740;BME280;54536;50.090;14.420;2023-01-29T02:04:24;100613.94;;;2.87;47.37
67740;BME280;54536;50.090;14.420;2023-01-29T02:07:13;100608.97;;;2.81;47.10
67740;BME280;54536;50.090;14.420;2023-01-29T02:10:09;100606.69;;;2.73;46.95
67740;BME280;54536;50.090;14.420;2023-01-29T02:12:38;100603.28;;;2.71;46.87
67740;BME280;54536;50.090;14.420;2023-01-29T02:15:06;100597.25;;;2.71;47.65
67740;BME280;54536;50.090;14.420;2023-01-29T02:17:34;100599.94;;;2.68;47.30
67740;BME280;54536;50.090;14.420;2023-01-29T02:37:31;100610.06;;;2.52;47.93
67740;BME280;54536;50.090;14.420;2023-01-29T02:48:54;100615.69;;;2.40;48.93
67740;BME280;54536;50.090;14.420;2023-01-29T02:52:14;100622.25;;;2.25;49.15
67740;BME280;54536;50.090;14.420;2023-01-29T02:54:38;100604.19;;;2.47;48.57
67740;BME280;54536;50.090;14.420;2023-01-29T02:57:28;100614.38;;;2.51;48.55
67740;BME280;54536;50.090;14.420;2023-01-29T03:03:13;100638.28;;;2.61;47.97
67740;BME280;54536;50.090;14.420;2023-01-29T03:06:00;100631.91;;;2.70;49.00
67740;BME280;54536;50.090;14.420;2023-01-29T03:08:38;100633.47;;;2.50;47.30
67740;BME280;54536;50.090;14.420;2023-01-29T03:11:13;100630.13;;;2.72;48.29
67740;BME280;54536;50.090;14.420;2023-01-29T03:13:50;100625.91;;;2.68;49.05
67740;BME280;54536;50.090;14.420;2023-01-29T03:16:25;100632.25;;;2.61;47.03
67740;BME280;54536;50.090;14.420;2023-01-29T03:19:04;100621.34;;;2.74;46.69
67740;BME280;54536;50.090;14.420;2023-01-29T03:21:44;100621.44;;;2.48;47.09
67740;BME280;54536;50.090;14.420;2023-01-29T03:30:27;100619.25;;;2.37;46.62
67740;BME280;54536;50.090;14.420;2023-01-29T03:33:16;100620.94;;;2.13;46.81
67740;BME280;54536;50.090;14.420;2023-01-29T03:36:04;100612.03;;;2.20;46.87
67740;BME280;54536;50.090;14.420;2023-01-29T03:38:32;100616.16;;;2.01;47.00
67740;BME280;54536;50.090;14.420;2023-01-29T03:41:06;100616.31;;;2.21;47.86
67740;BME280;54536;50.090;14.420;2023-01-29T03:43:50;100613.00;;;2.18;46.52
67740;BME280;54536;50.090;14.420;2023-01-29T03:48:57;100617.38;;;2.16;46.22
67740;BME280;54536;50.090;14.420;2023-01-29T03:51:59;100609.69;;;2.38;46.69
67740;BME280;54536;50.090;14.420;2023-01-29T03:57:40;100612.63;;;2.03;46.60
67740;BME280;54536;50.090;14.420;2023-01-29T04:05:16;100613.09;;;2.15;46.04
67740;BME280;54536;50.090;14.420;2023-01-29T04:07:51;100616.00;;;2.05;46.08
67740;BME280;54536;50.090;14.420;2023-01-29T04:10:24;100614.22;;;2.07;45.55
67740;BME280;54536;50.090;14.420;2023-01-29T04:13:01;100609.13;;;2.04;45.83
67740;BME280;54536;50.090;14.420;2023-01-29T04:15:37;100616.63;;;1.87;46.01
67740;BME280;54536;50.090;14.420;2023-01-29T04:18:05;100608.38;;;2.01;45.92
67740;BME280;54536;50.090;14.420;2023-01-29T04:20:31;100606.63;;;2.01;46.07
67740;BME280;54536;50.090;14.420;2023-01-29T04:22:58;100604.13;;;1.98;45.92
67740;BME280;54536;50.090;14.420;2023-01-29T04:25:29;100590.22;;;2.01;46.14
67740;BME280;54536;50.090;14.420;2023-01-29T04:28:04;100600.91;;;1.92;46.18
67740;BME280;54536;50.090;14.420;2023-01-29T04:31:00;100597.28;;;1.97;46.69
67740;BME280;54536;50.090;14.420;2023-01-29T04:39:23;100590.41;;;1.96;46.84
67740;BME280;54536;50.090;14.420;2023-01-29T04:42:17;100591.78;;;2.06;46.15
67740;BME280;54536;50.090;14.420;2023-01-29T04:45:06;100583.00;;;2.09;46.62
67740;BME280;54536;50.090;14.420;2023-01-29T04:56:29;100579.91;;;1.74;46.40
67740;BME280;54536;50.090;14.420;2023-01-29T04:59:08;100584.38;;;1.69;46.47
67740;BME280;54536;50.090;14.420;2023-01-29T05:01:37;100584.56;;;1.63;47.35
67740;BME280;54536;50.090;14.420;2023-01-29T05:04:13;100590.91;;;1.28;47.83
67740;BME280;54536;50.090;14.420;2023-01-29T05:06:48;100585.88;;;1.50;47.23
67740;BME280;54536;50.090;14.420;2023-01-29T05:09:17;100577.53;;;1.67;47.16
67740;BME280;54536;50.090;14.420;2023-01-29T05:11:47;100576.59;;;1.43;47.19
67740;BME280;54536;50.090;14.420;2023-01-29T05:14:18;100566.13;;;1.46;47.17
67740;BME280;54536;50.090;14.420;2023-01-29T05:16:51;100559.19;;;1.73;46.72
67740;BME280;54536;50.090;14.420;2023-01-29T05:19:19;100556.25;;;1.57;46.70
67740;BME280;54536;50.090;14.420;2023-01-29T05:21:52;100559.47;;;1.38;46.54
67740;BME280;54536;50.090;14.420;2023-01-29T05:24:24;100561.13;;;1.41;47.48
67740;BME280;54536;50.090;14.420;2023-01-29T05:26:52;100564.34;;;1.21;47.39
67740;BME280;54536;50.090;14.420;2023-01-29T05:29:45;100569.38;;;1.52;46.30
67740;BME280;54536;50.090;14.420;2023-01-29T05:32:12;100569.44;;;1.51;46.17
67740;BME280;54536;50.090;14.420;2023-01-29T05:34:38;100562.75;;;1.70;45.72
67740;BME280;54536;50.090;14.420;2023-01-29T05:37:05;100579.19;;;1.69;45.91
67740;BME280;54536;50.090;14.420;2023-01-29T05:39:32;100565.50;;;1.91;45.91
67740;BME280;54536;50.090;14.420;2023-01-29T05:41:58;100557.00;;;1.87;45.90
67740;BME280;54536;50.090;14.420;2023-01-29T05:44:25;100556.25;;;1.83;45.30
67740;BME280;54536;50.090;14.420;2023-01-29T05:46:51;100555.63;;;1.77;45.82
67740;BME280;54536;50.090;14.420;2023-01-29T05:49:18;100561.19;;;1.90;45.04
67740;BME280;54536;50.090;14.420;2023-01-29T05:51:45;100562.75;;;1.95;45.05
67740;BME280;54536;50.090;14.420;2023-01-29T05:54:12;100560.69;;;1.80;45.59
67740;BME280;54536;50.090;14.420;2023-01-29T05:56:39;100553.59;;;1.85;45.43
67740;BME280;54536;50.090;14.420;2023-01-29T05:59:06;100554.19;;;1.93;45.92
67740;BME280;54536;50.090;14.420;2023-01-29T06:01:38;100533.53;;;1.90;45.58
67740;BME280;54536;50.090;14.420;2023-01-29T06:04:04;100538.66;;;1.67;45.81
67740;BME280;54536;50.090;14.420;2023-01-29T06:06:31;100522.13;;;1.71;46.01
67740;BME280;54536;50.090;14.420;2023-01-29T06:08:57;100513.69;;;1.89;46.13
67740;BME280;54536;50.090;14.420;2023-01-29T06:11:29;100518.13;;;1.85;45.50
67740;BME280;54536;50.090;14.420;2023-01-29T06:13:56;100507.72;;;1.87;45.59
67740;BME280;54536;50.090;14.420;2023-01-29T06:16:22;100502.56;;;1.85;46.27
67740;BME280;54536;50.090;14.420;2023-01-29T06:18:48;100498.72;;;1.97;45.88
67740;BME280;54536;50.090;14.420;2023-01-29T06:21:14;100504.53;;;1.79;45.70
67740;BME280;54536;50.090;14.420;2023-01-29T06:23:41;100511.25;;;1.84;45.58
67740;BME280;54536;50.090;14.420;2023-01-29T06:26:11;100513.34;;;1.98;45.82
67740;BME280;54536;50.090;14.420;2023-01-29T06:28:39;100506.88;;;1.86;45.51
67740;BME280;54536;50.090;14.420;2023-01-29T06:31:07;100519.63;;;1.68;46.06
67740;BME280;54536;50.090;14.420;2023-01-29T06:33:34;100520.41;;;1.70;47.05
67740;BME280;54536;50.090;14.420;2023-01-29T06:36:03;100504.53;;;1.79;45.92
67740;BME280;54536;50.090;14.420;2023-01-29T06:38:35;100506.91;;;1.85;46.31
67740;BME280;54536;50.090;14.420;2023-01-29T06:41:11;100518.34;;;1.79;45.92
67740;BME280;54536;50.090;14.420;2023-01-29T06:43:38;100512.72;;;1.92;46.71
67740;BME280;54536;50.090;14.420;2023-01-29T06:46:06;100520.09;;;1.79;46.26
67740;BME280;54536;50.090;14.420;2023-01-29T06:48:33;100510.63;;;1.78;46.01
67740;BME280;54536;50.090;14.420;2023-01-29T06:51:05;100511.03;;;1.91;46.58
67740;BME280;54536;50.090;14.420;2023-01-29T06:53:33;100520.16;;;1.77;45.57
67740;BME280;54536;50.090;14.420;2023-01-29T06:56:00;100529.88;;;1.71;45.96
67740;BME280;54536;50.090;14.420;2023-01-29T06:58:27;100527.41;;;1.68;45.86
67740;BME280;54536;50.090;14.420;2023-01-29T07:00:53;100522.53;;;1.58;46.12
67740;BME280;54536;50.090;14.420;2023-01-29T07:03:20;100526.28;;;1.75;45.59
67740;BME280;54536;50.090;14.420;2023-01-29T07:05:50;100528.03;;;1.74;46.00
67740;BME280;54536;50.090;14.420;2023-01-29T07:08:23;100533.78;;;1.82;45.63
67740;BME280;54536;50.090;14.420;2023-01-29T07:11:00;100545.28;;;1.75;46.26
67740;BME280;54536;50.090;14.420;2023-01-29T07:13:27;100547.16;;;1.97;45.98
67740;BME280;54536;50.090;14.420;2023-01-29T07:15:58;100552.03;;;1.79;46.02
67740;BME280;54536;50.090;14.420;2023-01-29T07:18:26;100558.56;;;1.91;46.28
67740;BME280;54536;50.090;14.420;2023-01-29T07:20:53;100557.75;;;1.89;46.39
67740;BME280;54536;50.090;14.420;2023-01-29T07:23:20;100560.47;;;1.86;45.91
67740;BME280;54536;50.090;14.420;2023-01-29T07:25:48;100558.56;;;1.91;45.79
67740;BME280;54536;50.090;14.420;2023-01-29T07:28:19;100565.88;;;2.05;45.71
67740;BME280;54536;50.090;14.420;2023-01-29T07:30:45;100584.88;;;2.05;45.69
67740;BME280;54536;50.090;14.420;2023-01-29T07:33:12;100592.97;;;2.21;45.82
67740;BME280;54536;50.090;14.420;2023-01-29T07:35:44;100588.94;;;2.38;45.91
67740;BME280;54536;50.090;14.420;2023-01-29T07:38:13;100596.41;;;2.22;45.13
67740;BME280;54536;50.090;14.420;2023-01-29T07:40:40;100597.41;;;2.18;45.67
67740;BME280;54536;50.090;14.420;2023-01-29T07:43:08;100579.09;;;2.22;45.48
67740;BME280;54536;50.090;14.420;2023-01-29T07:45:37;100565.84;;;2.30;45.94
67740;BME280;54536;50.090;14.420;2023-01-29T07:48:22;100567.78;;;2.48;45.34
67740;BME280;54536;50.090;14.420;2023-01-29T07:50:55;100579.41;;;2.38;45.64
67740;BME280;54536;50.090;14.420;2023-01-29T07:53:23;100584.25;;;2.24;45.58
67740;BME280;54536;50.090;14.420;2023-01-29T07:55:50;100593.25;;;2.14;45.46
67740;BME280;54536;50.090;14.420;2023-01-29T07:58:16;100605.28;;;2.16;45.46
67740;BME280;54536;50.090;14.420;2023-01-29T08:00:43;100601.88;;;2.14;45.92
67740;BME280;54536;50.090;14.420;2023-01-29T08:03:15;100609.75;;;2.36;45.92
67740;BME280;54536;50.090;14.420;2023-01-29T08:05:42;100606.38;;;2.34;45.49
67740;BME280;54536;50.090;14.420;2023-01-29T08:08:15;100607.28;;;2.56;45.48
67740;BME280;54536;50.090;14.420;2023-01-29T08:10:41;100615.31;;;2.50;45.91
67740;BME280;54536;50.090;14.420;2023-01-29T08:13:08;100623.78;;;2.55;45.61
67740;BME280;54536;50.090;14.420;2023-01-29T08:15:34;100635.16;;;2.51;45.21
67740;BME280;54536;50.090;14.420;2023-01-29T08:18:02;100626.94;;;2.64;45.35
67740;BME280;54536;50.090;14.420;2023-01-29T08:20:28;100625.53;;;2.78;46.04
67740;BME280;54536;50.090;14.420;2023-01-29T08:23:02;100624.44;;;2.61;44.69
67740;BME280;54536;50.090;14.420;2023-01-29T08:25:29;100624.63;;;2.56;45.10
67740;BME280;54536;50.090;14.420;2023-01-29T08:27:57;100622.53;;;2.66;45.54
67740;BME280;54536;50.090;14.420;2023-01-29T08:30:28;100624.81;;;2.26;45.65
67740;BME280;54536;50.090;14.420;2023-01-29T08:32:54;100614.25;;;2.31;45.90
67740;BME280;54536;50.090;14.420;2023-01-29T08:35:21;100607.06;;;2.39;45.84
67740;BME280;54536;50.090;14.420;2023-01-29T08:37:59;100607.84;;;2.41;45.50
67740;BME280;54536;50.090;14.420;2023-01-29T08:40:31;100613.22;;;2.60;45.54
67740;BME280;54536;50.090;14.420;2023-01-29T08:43:00;100601.06;;;2.61;46.00
67740;BME280;54536;50.090;14.420;2023-01-29T08:45:26;100594.41;;;2.53;45.48
67740;BME280;54536;50.090;14.420;2023-01-29T08:47:53;100583.81;;;2.36;45.73
67740;BME280;54536;50.090;14.420;2023-01-29T08:50:18;100601.28;;;2.31;45.53
67740;BME280;54536;50.090;14.420;2023-01-29T08:52:45;100607.09;;;2.38;45.33
67740;BME280;54536;50.090;14.420;2023-01-29T08:55:17;100615.09;;;2.31;45.09
67740;BME280;54536;50.090;14.420;2023-01-29T08:57:43;100608.22;;;2.30;45.13
67740;BME280;54536;50.090;14.420;2023-01-29T09:00:10;100604.88;;;2.27;45.98
67740;BME280;54536;50.090;14.420;2023-01-29T09:02:37;100610.66;;;2.10;45.80
67740;BME280;54536;50.090;14.420;2023-01-29T09:05:03;100602.63;;;2.18;45.62
67740;BME280;54536;50.090;14.420;2023-01-29T09:07:30;100598.81;;;2.51;45.83
67740;BME280;54536;50.090;14.420;2023-01-29T09:09:56;100594.75;;;2.68;45.21
67740;BME280;54536;50.090;14.420;2023-01-29T09:12:22;100584.16;;;2.50;45.44
67740;BME280;54536;50.090;14.420;2023-01-29T09:14:48;100580.78;;;2.72;45.46
67740;BME280;54536;50.090;14.420;2023-01-29T09:17:17;100588.34;;;2.78;45.14
67740;BME280;54536;50.090;14.420;2023-01-29T09:19:43;100586.34;;;2.61;43.26
67740;BME280;54536;50.090;14.420;2023-01-29T09:22:10;100591.91;;;2.52;43.65
67740;BME280;54536;50.090;14.420;2023-01-29T09:24:36;100594.38;;;2.78;46.79
67740;BME280;54536;50.090;14.420;2023-01-29T09:27:02;100587.94;;;2.89;42.75
67740;BME280;54536;50.090;14.420;2023-01-29T09:29:29;100583.00;;;2.81;44.06
67740;BME280;54536;50.090;14.420;2023-01-29T09:31:56;100591.91;;;2.75;42.98
67740;BME280;54536;50.090;14.420;2023-01-29T09:34:22;100585.78;;;2.76;43.27
67740;BME280;54536;50.090;14.420;2023-01-29T09:36:48;100585.59;;;2.81;43.34
67740;BME280;54536;50.090;14.420;2023-01-29T09:39:14;100591.06;;;2.75;44.26
67740;BME280;54536;50.090;14.420;2023-01-29T09:42:02;100597.19;;;2.96;43.36
67740;BME280;54536;50.090;14.420;2023-01-29T09:45:00;100597.47;;;3.10;44.18
67740;BME280;54536;50.090;14.420;2023-01-29T09:47:32;100595.38;;;3.20;43.02
67740;BME280;54536;50.090;14.420;2023-01-29T09:50:05;100602.38;;;2.96;42.34
67740;BME280;54536;50.090;14.420;2023-01-29T09:52:52;100591.03;;;2.98;42.21
67740;BME280;54536;50.090;14.420;2023-01-29T09:55:25;100586.44;;;3.05;42.35
67740;BME280;54536;50.090;14.420;2023-01-29T09:57:55;100587.81;;;2.92;42.42
67740;BME280;54536;50.090;14.420;2023-01-29T10:00:28;100582.53;;;2.93;42.50
67740;BME280;54536;50.090;14.420;2023-01-29T10:06:14;100555.53;;;2.97;42.59
67740;BME280;54536;50.090;14.420;2023-01-29T10:14:45;100521.47;;;3.05;41.69
67740;BME280;54536;50.090;14.420;2023-01-29T10:22:59;100516.81;;;3.13;42.85
67740;BME280;54536;50.090;14.420;2023-01-29T10:25:31;100518.44;;;3.16;41.83
67740;BME280;54536;50.090;14.420;2023-01-29T10:28:01;100521.38;;;3.08;42.28
67740;BME280;54536;50.090;14.420;2023-01-29T10:30:36;100521.00;;;3.17;41.91
67740;BME280;54536;50.090;14.420;2023-01-29T10:33:05;100529.91;;;3.32;42.22
67740;BME280;54536;50.090;14.420;2023-01-29T10:35:51;100524.00;;;3.07;42.29
67740;BME280;54536;50.090;14.420;2023-01-29T10:38:42;100518.31;;;3.61;42.84
67740;BME280;54536;50.090;14.420;2023-01-29T11:00:22;100461.03;;;3.63;42.03
67740;BME280;54536;50.090;14.420;2023-01-29T11:02:50;100463.88;;;3.36;42.17
67740;BME280;54536;50.090;14.420;2023-01-29T11:05:37;100447.97;;;3.64;43.31
67740;BME280;54536;50.090;14.420;2023-01-29T11:08:17;100442.44;;;3.72;42.17
67740;BME280;54536;50.090;14.420;2023-01-29T11:13:34;100448.38;;;3.94;41.79
67740;BME280;54536;50.090;14.420;2023-01-29T11:16:04;100443.03;;;3.97;41.66
67740;BME280;54536;50.090;14.420;2023-01-29T11:21:14;100445.56;;;4.18;41.53
67740;BME280;54536;50.090;14.420;2023-01-29T11:23:41;100438.00;;;4.13;41.71
67740;BME280;54536;50.090;14.420;2023-01-29T11:26:11;100444.53;;;4.03;40.97
67740;BME280;54536;50.090;14.420;2023-01-29T11:28:45;100433.50;;;4.17;41.31
67740;BME280;54536;50.090;14.420;2023-01-29T11:33:52;100430.38;;;4.28;41.74
67740;BME280;54536;50.090;14.420;2023-01-29T11:38:46;100413.66;;;4.33;41.65
67740;BME280;54536;50.090;14.420;2023-01-29T11:41:16;100411.28;;;4.29;41.58
67740;BME280;54536;50.090;14.420;2023-01-29T11:43:47;100410.47;;;4.27;42.05
67740;BME280;54536;50.090;14.420;2023-01-29T11:46:15;100404.72;;;4.20;41.94
67740;BME280;54536;50.090;14.420;2023-01-29T11:48:44;100403.94;;;3.99;42.21
67740;BME280;54536;50.090;14.420;2023-01-29T11:51:26;100408.59;;;3.92;42.21
67740;BME280;54536;50.090;14.420;2023-01-29T11:54:01;100391.06;;;3.96;42.23
67740;BME280;54536;50.090;14.420;2023-01-29T11:56:37;100387.34;;;4.02;41.86
67740;BME280;54536;50.090;14.420;2023-01-29T12:02:19;100363.16;;;3.99;42.05
67740;BME280;54536;50.090;14.420;2023-01-29T12:04:54;100362.75;;;4.09;42.36
67740;BME280;54536;50.090;14.420;2023-01-29T12:07:22;100352.47;;;4.06;42.52
67740;BME280;54536;50.090;14.420;2023-01-29T12:09:54;100358.84;;;4.17;42.52
67740;BME280;54536;50.090;14.420;2023-01-29T12:12:43;100350.00;;;4.03;42.51
67740;BME280;54536;50.090;14.420;2023-01-29T12:15:20;100341.28;;;4.04;42.70
67740;BME280;54536;50.090;14.420;2023-01-29T12:18:03;100334.66;;;4.15;42.95
67740;BME280;54536;50.090;14.420;2023-01-29T12:20:45;100332.25;;;4.30;42.48
67740;BME280;54536;50.090;14.420;2023-01-29T12:23:40;100335.41;;;4.17;42.99
67740;BME280;54536;50.090;14.420;2023-01-29T12:26:13;100343.16;;;4.19;43.21
67740;BME280;54536;50.090;14.420;2023-01-29T12:29:17;100344.97;;;4.36;42.67
67740;BME280;54536;50.090;14.420;2023-01-29T12:32:01;100350.75;;;4.23;42.85
67740;BME280;54536;50.090;14.420;2023-01-29T12:37:49;100355.31;;;4.18;42.75
67740;BME280;54536;50.090;14.420;2023-01-29T12:40:23;100349.28;;;4.18;42.51
67740;BME280;54536;50.090;14.420;2023-01-29T12:42:56;100347.75;;;4.50;42.67
67740;BME280;54536;50.090;14.420;2023-01-29T12:45:28;100336.94;;;4.40;42.89
67740;BME280;54536;50.090;14.420;2023-01-29T12:48:03;100342.88;;;4.25;43.42
67740;BME280;54536;50.090;14.420;2023-01-29T12:50:36;100319.38;;;4.44;42.95
67740;BME280;54536;50.090;14.420;2023-01-29T12:53:24;100316.91;;;4.23;43.11
67740;BME280;54536;50.090;14.420;2023-01-29T12:56:01;100312.84;;;4.18;42.90
67740;BME280;54536;50.090;14.420;2023-01-29T13:01:07;100308.38;;;4.39;42.75
67740;BME280;54536;50.090;14.420;2023-01-29T13:04:16;100302.38;;;4.54;43.18
67740;BME280;54536;50.090;14.420;2023-01-29T13:06:49;100311.72;;;4.41;42.88
67740;BME280;54536;50.090;14.420;2023-01-29T13:09:31;100305.38;;;4.46;43.32
67740;BME280;54536;50.090;14.420;2023-01-29T13:12:09;100299.88;;;4.53;43.20
67740;BME280;54536;50.090;14.420;2023-01-29T13:14:42;100297.28;;;4.53;43.06
67740;BME280;54536;50.090;14.420;2023-01-29T13:17:15;100297.97;;;4.56;43.53
67740;BME280;54536;50.090;14.420;2023-01-29T13:19:48;100286.38;;;4.44;43.67
67740;BME280;54536;50.090;14.420;2023-01-29T13:22:25;100285.91;;;4.36;43.42
67740;BME280;54536;50.090;14.420;2023-01-29T13:24:53;100278.56;;;4.44;43.55
67740;BME280;54536;50.090;14.420;2023-01-29T13:27:24;100275.22;;;4.42;43.49
67740;BME280;54536;50.090;14.420;2023-01-29T13:29:52;100276.44;;;4.35;43.24
67740;BME280;54536;50.090;14.420;2023-01-29T13:32:23;100281.25;;;4.43;43.71
67740;BME280;54536;50.090;14.420;2023-01-29T13:34:55;100276.44;;;4.53;43.07
67740;BME280;54536;50.090;14.420;2023-01-29T13:37:52;100275.06;;;4.45;43.96
67740;BME280;54536;50.090;14.420;2023-01-29T13:40:23;100272.59;;;4.60;43.63
67740;BME280;54536;50.090;14.420;2023-01-29T13:42:52;100266.81;;;4.55;43.43
67740;BME280;54536;50.090;14.420;2023-01-29T13:45:41;100261.97;;;4.64;43.37
67740;BME280;54536;50.090;14.420;2023-01-29T13:48:27;100262.72;;;4.66;43.34
67740;BME280;54536;50.090;14.420;2023-01-29T13:50:59;100264.56;;;4.47;43.24
67740;BME280;54536;50.090;14.420;2023-01-29T13:53:35;100257.72;;;4.44;43.74
67740;BME280;54536;50.090;14.420;2023-01-29T13:56:29;100266.84;;;4.53;43.52
67740;BME280;54536;50.090;14.420;2023-01-29T13:58:56;100262.25;;;4.41;43.98
67740;BME280;54536;50.090;14.420;2023-01-29T14:04:29;100257.13;;;4.39;43.43
67740;BME280;54536;50.090;14.420;2023-01-29T14:06:58;100261.06;;;4.48;43.45
67740;BME280;54536;50.090;14.420;2023-01-29T14:17:25;100259.34;;;4.30;43.58
67740;BME280;54536;50.090;14.420;2023-01-29T14:20:03;100251.78;;;4.42;43.57
67740;BME280;54536;50.090;14.420;2023-01-29T14:22:43;100242.88;;;4.46;43.95
67740;BME280;54536;50.090;14.420;2023-01-29T14:25:17;100226.97;;;4.53;43.91
67740;BME280;54536;50.090;14.420;2023-01-29T14:27:49;100218.63;;;4.29;44.27
67740;BME280;54536;50.090;14.420;2023-01-29T14:30:21;100215.78;;;4.33;43.91
67740;BME280;54536;50.090;14.420;2023-01-29T14:32:50;100218.91;;;4.40;43.99
67740;BME280;54536;50.090;14.420;2023-01-29T14:35:17;100233.84;;;4.36;44.01
67740;BME280;54536;50.090;14.420;2023-01-29T14:37:49;100227.31;;;4.28;44.26
67740;BME280;54536;50.090;14.420;2023-01-29T14:43:00;100234.38;;;4.26;44.77
67740;BME280;54536;50.090;14.420;2023-01-29T14:45:31;100231.09;;;4.22;44.31
67740;BME280;54536;50.090;14.420;2023-01-29T14:53:22;100228.78;;;4.33;44.93
67740;BME280;54536;50.090;14.420;2023-01-29T14:56:35;100230.03;;;4.26;44.94
67740;BME280;54536;50.090;14.420;2023-01-29T14:59:22;100240.13;;;4.32;44.11
67740;BME280;54536;50.090;14.420;2023-01-29T15:01:54;100239.22;;;4.33;44.38
67740;BME280;54536;50.090;14.420;2023-01-29T15:04:43;100237.28;;;4.19;44.54
67740;BME280;54536;50.090;14.420;2023-01-29T15:09:51;100235.75;;;4.33;45.00
67740;BME280;54536;50.090;14.420;2023-01-29T15:12:32;100223.81;;;4.29;44.67
67740;BME280;54536;50.090;14.420;2023-01-29T15:15:18;100214.53;;;4.40;44.42
67740;BME280;54536;50.090;14.420;2023-01-29T15:18:14;100217.09;;;4.42;44.58
67740;BME280;54536;50.090;14.420;2023-01-29T15:20:43;100218.47;;;4.32;45.47
67740;BME280;54536;50.090;14.420;2023-01-29T15:23:29;100214.00;;;4.16;45.13
67740;BME280;54536;50.090;14.420;2023-01-29T15:26:00;100217.31;;;4.37;45.83
67740;BME280;54536;50.090;14.420;2023-01-29T15:28:29;100218.47;;;4.32;45.22
67740;BME280;54536;50.090;14.420;2023-01-29T15:31:03;100219.91;;;4.37;45.95
67740;BME280;54536;50.090;14.420;2023-01-29T15:33:32;100218.13;;;4.20;45.18
67740;BME280;54536;50.090;14.420;2023-01-29T15:36:02;100214.75;;;4.18;45.18
67740;BME280;54536;50.090;14.420;2023-01-29T15:38:29;100214.94;;;4.15;45.33